createdAt,value
2017-07-30T00:02:00.428Z,96847.30
2017-07-30T00:04:28.063Z,96844.02
2017-07-30T00:06:55.662Z,96842.44
2017-07-30T00:09:24.644Z,96839.44
2017-07-30T00:11:53.193Z,96846.20
2017-07-30T00:14:22.217Z,96843.59
2017-07-30T00:16:49.861Z,96838.83
2017-07-30T00:19:17.592Z,96842.68
2017-07-30T00:21:45.255Z,96846.20
2017-07-30T00:24:12.892Z,96837.06
2017-07-30T00:26:40.495Z,96840.68
2017-07-30T00:29:08.081Z,96843.86
2017-07-30T00:31:36.022Z,96844.86
2017-07-30T00:34:03.639Z,96846.70
2017-07-30T00:36:31.237Z,96841.22
2017-07-30T00:38:58.882Z,96839.59
2017-07-30T00:41:26.463Z,96840.08
2017-07-30T00:43:54.099Z,96843.59
2017-07-30T00:46:21.717Z,96847.06
2017-07-30T00:48:49.624Z,96844.14
2017-07-30T00:51:17.223Z,96842.09
2017-07-30T00:53:44.841Z,96843.89
2017-07-30T00:56:12.446Z,96838.45
2017-07-30T00:58:40.042Z,96838.58
2017-07-30T01:01:08.114Z,96833.61
2017-07-30T01:03:35.726Z,96835.80
2017-07-30T01:06:03.423Z,96836.69
2017-07-30T01:08:31.060Z,96827.27
2017-07-30T01:10:59.051Z,96822.09
2017-07-30T01:13:26.651Z,96820.33
2017-07-30T01:15:54.244Z,96814.26
2017-07-30T01:18:21.875Z,96816.81
2017-07-30T01:20:49.463Z,96809.97
2017-07-30T01:23:17.050Z,96807.83
2017-07-30T01:25:44.656Z,96807.44
2017-07-30T01:28:12.260Z,96815.16
2017-07-30T01:30:39.854Z,96816.05
2017-07-30T01:33:07.784Z,96809.63
2017-07-30T01:35:35.415Z,96804.53
2017-07-30T01:38:03.044Z,96808.81
2017-07-30T01:40:31.032Z,96808.00
2017-07-30T01:42:58.617Z,96807.18
2017-07-30T01:45:26.229Z,96809.75
2017-07-30T01:47:53.828Z,96815.75
2017-07-30T01:50:21.738Z,96807.19
2017-07-30T01:52:49.315Z,96807.31
2017-07-30T01:55:16.901Z,96806.98
2017-07-30T01:57:44.512Z,96805.31
2017-07-30T02:00:12.124Z,96812.66
2017-07-30T02:02:39.735Z,96810.69
2017-07-30T02:05:07.345Z,96810.81
2017-07-30T02:07:34.986Z,96808.83
2017-07-30T02:10:02.704Z,96806.34
2017-07-30T02:12:30.696Z,96796.97
2017-07-30T02:14:58.295Z,96794.02
2017-07-30T02:17:25.888Z,96786.31
2017-07-30T02:19:53.741Z,96796.19
2017-07-30T02:22:21.350Z,96782.92
2017-07-30T02:24:48.974Z,96788.48
2017-07-30T02:27:16.578Z,96785.06
2017-07-30T02:29:44.543Z,96795.33
2017-07-30T02:32:12.318Z,96789.73
2017-07-30T02:34:39.902Z,96790.08
2017-07-30T02:37:07.557Z,96794.78
2017-07-30T02:39:35.190Z,96799.14
2017-07-30T02:42:03.163Z,96792.33
2017-07-30T02:44:30.760Z,96788.91
2017-07-30T02:46:58.334Z,96794.94
2017-07-30T02:49:25.944Z,96784.25
2017-07-30T02:51:53.539Z,96791.05
2017-07-30T02:54:21.177Z,96795.29
2017-07-30T02:56:49.127Z,96792.30
2017-07-30T02:59:16.751Z,96790.55
2017-07-30T03:01:44.346Z,96791.36
2017-07-30T03:04:12.292Z,96798.20
2017-07-30T03:06:39.898Z,96795.69
2017-07-30T03:09:07.492Z,96797.90
2017-07-30T03:11:35.132Z,96799.64
2017-07-30T03:14:02.723Z,96798.83
2017-07-30T03:16:30.331Z,96803.23
2017-07-30T03:18:57.917Z,96803.61
2017-07-30T03:21:25.861Z,96793.53
2017-07-30T03:23:53.444Z,96799.63
2017-07-30T03:26:21.021Z,96798.84
2017-07-30T03:28:48.689Z,96798.84
2017-07-30T03:31:16.267Z,96803.55
2017-07-30T03:33:43.883Z,96802.72
2017-07-30T03:36:11.465Z,96797.20
2017-07-30T03:38:39.482Z,96795.03
2017-07-30T03:41:07.063Z,96782.59
2017-07-30T03:43:34.664Z,96795.77
2017-07-30T03:46:02.305Z,96802.55
2017-07-30T03:48:29.911Z,96805.03
2017-07-30T03:50:57.524Z,96813.20
2017-07-30T03:53:25.294Z,96805.53
2017-07-30T03:55:52.938Z,96804.25
2017-07-30T03:58:20.567Z,96809.38
2017-07-30T04:00:49.076Z,96811.52
2017-07-30T04:03:16.674Z,96803.79
2017-07-30T04:05:44.258Z,96800.30
2017-07-30T04:08:11.969Z,96799.36
2017-07-30T04:10:39.564Z,96801.00
2017-07-30T04:13:07.216Z,96798.40
2017-07-30T04:15:34.814Z,96798.40
2017-07-30T04:18:02.882Z,96794.58
2017-07-30T04:20:30.478Z,96795.88
2017-07-30T04:22:58.135Z,96796.80
2017-07-30T04:25:25.773Z,96792.59
2017-07-30T04:27:53.381Z,96797.23
2017-07-30T04:30:20.986Z,96791.59
2017-07-30T04:32:48.584Z,96785.91
2017-07-30T04:35:16.194Z,96779.00
2017-07-30T04:37:43.807Z,96783.63
2017-07-30T04:40:11.753Z,96781.02
2017-07-30T04:42:39.358Z,96782.73
2017-07-30T04:45:07.125Z,96783.94
2017-07-30T04:47:34.723Z,96780.44
2017-07-30T04:50:02.321Z,96779.92
2017-07-30T04:52:29.934Z,96789.69
2017-07-30T04:54:57.678Z,96781.91
2017-07-30T04:57:25.598Z,96793.81
2017-07-30T04:59:53.209Z,96789.05
2017-07-30T05:02:20.849Z,96793.69
2017-07-30T05:04:48.495Z,96804.23
2017-07-30T05:07:16.188Z,96796.05
2017-07-30T05:09:43.826Z,96800.33
2017-07-30T05:12:11.449Z,96800.37
2017-07-30T05:14:39.448Z,96799.48
2017-07-30T05:19:41.224Z,96794.55
2017-07-30T05:22:08.818Z,96801.19
2017-07-30T05:24:36.411Z,96801.02
2017-07-30T05:27:04.412Z,96798.23
2017-07-30T05:29:32.024Z,96808.77
2017-07-30T05:31:59.639Z,96811.72
2017-07-30T05:34:27.246Z,96806.45
2017-07-30T05:36:55.138Z,96817.53
2017-07-30T05:39:22.795Z,96809.45
2017-07-30T05:41:50.407Z,96812.36
2017-07-30T05:44:18.041Z,96800.66
2017-07-30T05:46:45.692Z,96803.09
2017-07-30T05:49:13.751Z,96797.81
2017-07-30T05:51:41.385Z,96804.05
2017-07-30T05:54:09.321Z,96802.55
2017-07-30T05:56:36.953Z,96806.63
2017-07-30T05:59:04.561Z,96811.05
2017-07-30T06:01:32.191Z,96809.89
2017-07-30T06:03:59.781Z,96817.31
2017-07-30T06:06:27.397Z,96815.78
2017-07-30T06:08:55.111Z,96820.68
2017-07-30T06:11:23.054Z,96813.41
2017-07-30T06:13:50.649Z,96822.52
2017-07-30T06:16:18.241Z,96823.55
2017-07-30T06:18:45.878Z,96828.05
2017-07-30T06:21:13.480Z,96829.59
2017-07-30T06:23:41.100Z,96827.77
2017-07-30T06:26:08.711Z,96815.59
2017-07-30T06:28:36.323Z,96812.31
2017-07-30T06:31:03.966Z,96819.42
2017-07-30T06:33:31.886Z,96819.28
2017-07-30T06:35:59.492Z,96814.85
2017-07-30T06:38:27.065Z,96812.36
2017-07-30T06:40:54.804Z,96816.86
2017-07-30T06:43:22.476Z,96819.32
2017-07-30T06:45:50.090Z,96814.05
2017-07-30T06:48:17.728Z,96821.19
2017-07-30T06:50:45.627Z,96818.05
2017-07-30T06:53:13.215Z,96814.82
2017-07-30T06:55:40.816Z,96817.73
2017-07-30T06:58:08.428Z,96816.52
2017-07-30T07:00:36.124Z,96814.23
2017-07-30T07:03:03.759Z,96807.53
2017-07-30T07:05:31.335Z,96811.53
2017-07-30T07:07:59.055Z,96816.46
2017-07-30T07:10:26.678Z,96814.11
2017-07-30T07:12:54.313Z,96820.38
2017-07-30T07:15:21.918Z,96809.56
2017-07-30T07:17:49.584Z,96814.08
2017-07-30T07:20:17.179Z,96808.25
2017-07-30T07:22:44.763Z,96817.38
2017-07-30T07:25:12.688Z,96809.83
2017-07-30T07:27:40.273Z,96815.11
2017-07-30T07:30:07.910Z,96815.27
2017-07-30T07:32:36.268Z,96814.87
2017-07-30T07:35:03.872Z,96818.19
2017-07-30T07:37:31.650Z,96818.42
2017-07-30T07:39:59.277Z,96816.90
2017-07-30T07:42:27.413Z,96814.00
2017-07-30T07:44:55.011Z,96811.62
2017-07-30T07:47:22.629Z,96810.54
2017-07-30T07:49:50.378Z,96807.70
2017-07-30T07:52:17.992Z,96815.13
2017-07-30T07:54:45.620Z,96810.81
2017-07-30T07:57:13.228Z,96814.47
2017-07-30T07:59:41.222Z,96813.88
2017-07-30T08:02:09.024Z,96813.97
2017-07-30T08:04:36.646Z,96810.58
2017-07-30T08:07:04.254Z,96817.97
2017-07-30T08:09:31.958Z,96817.72
2017-07-30T08:11:59.577Z,96816.54
2017-07-30T08:14:27.184Z,96815.53
2017-07-30T08:16:54.821Z,96813.33
2017-07-30T08:19:22.422Z,96819.17
2017-07-30T08:21:50.582Z,96814.08
2017-07-30T08:24:18.223Z,96813.45
2017-07-30T08:26:45.806Z,96818.26
2017-07-30T08:29:13.413Z,96814.83
2017-07-30T08:31:41.011Z,96815.84
2017-07-30T08:34:08.616Z,96815.45
2017-07-30T08:36:36.206Z,96823.09
2017-07-30T08:39:04.226Z,96818.59
2017-07-30T08:41:31.833Z,96819.44
2017-07-30T08:43:59.474Z,96816.52
2017-07-30T08:46:27.078Z,96818.42
2017-07-30T08:48:54.669Z,96815.13
2017-07-30T08:51:22.278Z,96814.78
2017-07-30T08:53:49.862Z,96814.81
2017-07-30T08:56:17.878Z,96813.30
2017-07-30T08:58:45.485Z,96811.23
2017-07-30T09:01:13.105Z,96808.85
2017-07-30T09:03:40.718Z,96814.48
2017-07-30T09:06:08.324Z,96806.48
2017-07-30T09:08:35.940Z,96801.23
2017-07-30T09:11:03.620Z,96800.63
2017-07-30T09:13:31.269Z,96799.87
2017-07-30T09:15:58.885Z,96805.16
2017-07-30T09:18:26.497Z,96796.41
2017-07-30T09:20:54.095Z,96801.90
2017-07-30T09:23:22.035Z,96797.09
2017-07-30T09:25:49.662Z,96805.83
2017-07-30T09:28:17.310Z,96799.03
2017-07-30T09:30:44.937Z,96800.14
2017-07-30T09:33:12.513Z,96798.38
2017-07-30T09:35:40.145Z,96796.12
2017-07-30T09:38:07.748Z,96795.84
2017-07-30T09:40:35.397Z,96798.21
2017-07-30T09:43:03.046Z,96795.83
2017-07-30T09:45:31.325Z,96787.89
2017-07-30T09:47:58.913Z,96783.47
2017-07-30T09:50:26.525Z,96782.79
2017-07-30T09:52:54.162Z,96773.95
2017-07-30T09:55:21.747Z,96783.72
2017-07-30T09:57:49.489Z,96782.14
2017-07-30T10:00:17.114Z,96780.19
2017-07-30T10:02:45.190Z,96777.33
2017-07-30T10:05:12.891Z,96781.89
2017-07-30T10:07:40.477Z,96777.70
2017-07-30T10:10:08.117Z,96769.47
2017-07-30T10:12:35.701Z,96770.91
2017-07-30T10:15:03.462Z,96780.88
2017-07-30T10:17:31.053Z,96770.41
2017-07-30T10:19:58.670Z,96768.18
2017-07-30T10:22:26.972Z,96758.08
2017-07-30T10:24:54.954Z,96763.34
2017-07-30T10:27:22.538Z,96755.83
2017-07-30T10:29:50.149Z,96759.42
2017-07-30T10:32:17.777Z,96758.06
2017-07-30T10:34:45.372Z,96760.78
2017-07-30T10:37:13.016Z,96755.17
2017-07-30T10:39:41.069Z,96749.00
2017-07-30T10:42:09.057Z,96751.45
2017-07-30T10:44:37.037Z,96743.30
2017-07-30T10:47:04.657Z,96743.77
2017-07-30T10:49:32.245Z,96740.31
2017-07-30T10:52:00.262Z,96738.20
2017-07-30T10:54:27.859Z,96736.86
2017-07-30T10:56:55.453Z,96731.80
2017-07-30T10:59:23.067Z,96724.58
2017-07-30T11:01:50.690Z,96726.27
2017-07-30T11:04:20.005Z,96727.65
2017-07-30T11:06:47.678Z,96724.94
2017-07-30T11:09:15.619Z,96714.01
2017-07-30T11:11:43.223Z,96715.37
2017-07-30T11:14:10.848Z,96717.25
2017-07-30T11:16:38.485Z,96708.93
2017-07-30T11:19:06.240Z,96705.19
2017-07-30T11:21:34.179Z,96708.97
2017-07-30T11:24:01.827Z,96702.78
2017-07-30T11:26:29.842Z,96707.72
2017-07-30T11:28:57.491Z,96695.22
2017-07-30T11:31:25.108Z,96703.05
2017-07-30T11:33:52.748Z,96693.75
2017-07-30T11:36:20.329Z,96695.95
2017-07-30T11:38:48.293Z,96697.77
2017-07-30T11:41:15.896Z,96694.69
2017-07-30T11:43:43.515Z,96690.86
2017-07-30T11:46:11.134Z,96695.94
2017-07-30T11:48:38.717Z,96686.39
2017-07-30T11:51:06.327Z,96685.87
2017-07-30T11:53:34.027Z,96682.33
2017-07-30T11:56:02.037Z,96678.64
2017-07-30T11:58:29.630Z,96683.11
2017-07-30T12:00:57.249Z,96681.23
2017-07-30T12:03:24.859Z,96672.67
2017-07-30T12:05:52.667Z,96676.64
2017-07-30T12:08:20.401Z,96678.45
2017-07-30T12:10:47.981Z,96675.79
2017-07-30T12:13:15.659Z,96675.03
2017-07-30T12:15:43.279Z,96682.45
2017-07-30T12:18:11.637Z,96680.26
2017-07-30T12:20:39.273Z,96683.84
2017-07-30T12:23:06.910Z,96671.34
2017-07-30T12:25:34.507Z,96671.95
2017-07-30T12:28:02.131Z,96664.72
2017-07-30T12:30:29.749Z,96664.05
2017-07-30T12:32:57.518Z,96663.77
2017-07-30T12:35:25.875Z,96667.59
2017-07-30T12:37:53.499Z,96670.92
2017-07-30T12:40:21.326Z,96664.11
2017-07-30T12:42:48.967Z,96664.28
2017-07-30T12:45:16.558Z,96667.27
2017-07-30T12:47:44.235Z,96657.08
2017-07-30T12:50:11.851Z,96657.20
2017-07-30T12:52:39.797Z,96657.78
2017-07-30T12:55:07.422Z,96654.69
2017-07-30T12:57:35.023Z,96657.51
2017-07-30T13:00:02.671Z,96655.67
2017-07-30T13:02:30.289Z,96655.47
2017-07-30T13:04:58.400Z,96646.66
2017-07-30T13:07:26.062Z,96644.88
2017-07-30T13:09:54.035Z,96642.57
2017-07-30T13:12:21.654Z,96638.05
2017-07-30T13:14:49.650Z,96644.91
2017-07-30T13:17:17.449Z,96633.36
2017-07-30T13:19:45.041Z,96631.33
2017-07-30T13:22:12.673Z,96630.91
2017-07-30T13:24:40.293Z,96630.36
2017-07-30T13:27:07.900Z,96626.08
2017-07-30T13:29:35.516Z,96624.81
2017-07-30T13:32:03.520Z,96620.16
2017-07-30T13:34:31.141Z,96619.95
2017-07-30T13:36:59.406Z,96618.98
2017-07-30T13:39:27.023Z,96610.67
2017-07-30T13:41:54.669Z,96605.89
2017-07-30T13:44:22.325Z,96607.78
2017-07-30T13:46:49.955Z,96597.91
2017-07-30T13:49:17.589Z,96595.84
2017-07-30T13:51:45.205Z,96597.55
2017-07-30T13:54:13.631Z,96592.36
2017-07-30T13:56:41.230Z,96596.38
2017-07-30T13:59:08.835Z,96594.45
2017-07-30T14:01:36.467Z,96590.80
2017-07-30T14:04:04.388Z,96586.37
2017-07-30T14:06:32.984Z,96590.69
2017-07-30T14:09:00.693Z,96577.31
2017-07-30T14:11:28.665Z,96575.42
2017-07-30T14:13:56.811Z,96576.36
2017-07-30T14:16:24.412Z,96573.39
2017-07-30T14:18:52.135Z,96572.51
2017-07-30T14:21:19.746Z,96568.86
2017-07-30T14:23:47.351Z,96574.00
2017-07-30T14:26:15.341Z,96571.61
2017-07-30T14:28:43.317Z,96582.06
2017-07-30T14:31:11.012Z,96590.48
2017-07-30T14:33:39.089Z,96588.58
2017-07-30T14:36:06.817Z,96591.45
2017-07-30T14:38:34.659Z,96590.01
2017-07-30T14:41:02.656Z,96589.55
2017-07-30T14:43:30.307Z,96590.61
2017-07-30T14:45:57.934Z,96592.36
2017-07-30T14:48:27.113Z,96590.94
2017-07-30T14:50:55.165Z,96592.05
2017-07-30T14:53:22.836Z,96600.03
2017-07-30T14:55:50.451Z,96602.72
2017-07-30T14:58:18.165Z,96602.23
2017-07-30T15:00:46.965Z,96612.23
2017-07-30T15:03:14.690Z,96616.06
2017-07-30T15:05:42.337Z,96609.83
2017-07-30T15:08:09.947Z,96602.42
2017-07-30T15:10:37.545Z,96603.30
2017-07-30T15:13:05.545Z,96598.26
2017-07-30T15:15:34.834Z,96591.71
2017-07-30T15:18:02.580Z,96593.32
2017-07-30T15:20:30.214Z,96590.18
2017-07-30T15:22:57.819Z,96592.36
2017-07-30T15:25:26.537Z,96589.13
2017-07-30T15:27:54.151Z,96596.08
2017-07-30T15:30:23.213Z,96589.39
2017-07-30T15:32:50.837Z,96590.29
2017-07-30T15:35:18.468Z,96581.98
2017-07-30T15:37:46.089Z,96589.72
2017-07-30T15:40:15.732Z,96589.62
2017-07-30T15:42:43.431Z,96590.11
2017-07-30T15:45:11.063Z,96586.55
2017-07-30T15:47:39.092Z,96589.97
2017-07-30T15:50:06.739Z,96585.37
2017-07-30T15:52:34.696Z,96587.69
2017-07-30T15:55:02.397Z,96599.13
2017-07-30T15:57:29.988Z,96609.53
2017-07-30T15:59:58.260Z,96607.15
2017-07-30T16:02:26.192Z,96658.05
2017-07-30T16:04:54.198Z,96671.67
2017-07-30T16:07:21.815Z,96672.21
2017-07-30T16:09:49.436Z,96699.95
2017-07-30T16:12:17.084Z,96716.26
2017-07-30T16:14:44.704Z,96728.88
2017-07-30T16:17:12.368Z,96716.03
2017-07-30T16:19:39.963Z,96724.29
2017-07-30T16:22:07.600Z,96708.75
2017-07-30T16:24:35.220Z,96709.09
2017-07-30T16:27:03.183Z,96681.25
2017-07-30T16:29:30.793Z,96665.28
2017-07-30T16:31:58.415Z,96666.91
2017-07-30T16:34:26.042Z,96668.36
2017-07-30T16:36:53.645Z,96671.62
2017-07-30T16:39:21.826Z,96671.76
2017-07-30T16:41:49.470Z,96652.31
2017-07-30T16:44:17.202Z,96655.77
2017-07-30T16:46:44.843Z,96655.16
2017-07-30T16:49:12.990Z,96662.50
2017-07-30T16:51:40.602Z,96656.58
2017-07-30T16:54:08.188Z,96656.75
2017-07-30T16:56:35.784Z,96659.17
2017-07-30T16:59:03.623Z,96667.22
2017-07-30T17:01:31.264Z,96656.41
2017-07-30T17:03:58.985Z,96654.59
2017-07-30T17:06:26.614Z,96652.05
2017-07-30T17:08:54.229Z,96661.48
2017-07-30T17:11:21.823Z,96663.23
2017-07-30T17:13:49.466Z,96670.34
2017-07-30T17:16:17.310Z,96666.89
2017-07-30T17:18:45.343Z,96682.33
2017-07-30T17:21:12.978Z,96673.44
2017-07-30T17:23:40.563Z,96665.48
2017-07-30T17:26:08.641Z,96676.09
2017-07-30T17:28:36.269Z,96682.91
2017-07-30T17:31:03.881Z,96695.14
2017-07-30T17:33:31.494Z,96699.50
2017-07-30T17:35:59.112Z,96698.68
2017-07-30T17:38:26.962Z,96699.64
2017-07-30T17:40:54.670Z,96705.04
2017-07-30T17:43:22.677Z,96708.45
2017-07-30T17:45:50.291Z,96710.23
2017-07-30T17:48:17.899Z,96707.64
2017-07-30T17:50:45.529Z,96717.21
2017-07-30T17:53:13.590Z,96719.08
2017-07-30T17:55:41.643Z,96723.20
2017-07-30T17:58:09.248Z,96723.30
2017-07-30T18:00:36.881Z,96723.94
2017-07-30T18:03:04.540Z,96733.06
2017-07-30T18:05:32.843Z,96732.98
2017-07-30T18:08:00.465Z,96738.00
2017-07-30T18:10:28.327Z,96744.42
2017-07-30T18:12:55.936Z,96750.23
2017-07-30T18:15:23.568Z,96754.32
2017-07-30T18:17:51.213Z,96756.84
2017-07-30T18:20:19.274Z,96759.31
2017-07-30T18:22:47.304Z,96759.66
2017-07-30T18:25:16.228Z,96756.55
2017-07-30T18:27:43.981Z,96752.42
2017-07-30T18:30:11.664Z,96771.64
2017-07-30T18:32:39.280Z,96796.21
2017-07-30T18:35:07.482Z,96809.63
2017-07-30T18:37:35.111Z,96821.63
2017-07-30T18:40:03.798Z,96819.69
2017-07-30T18:42:31.425Z,96823.98
2017-07-30T18:44:59.055Z,96828.17
2017-07-30T18:47:26.836Z,96850.08
2017-07-30T18:49:54.472Z,96850.67
2017-07-30T18:52:22.097Z,96858.85
2017-07-30T18:54:49.724Z,96880.73
2017-07-30T18:57:18.072Z,96912.95
2017-07-30T18:59:45.714Z,96934.08
2017-07-30T19:02:14.807Z,96958.97
2017-07-30T19:04:42.545Z,96978.31
2017-07-30T19:07:10.186Z,96971.73
2017-07-30T19:09:37.836Z,96963.56
2017-07-30T19:12:05.540Z,96963.56
2017-07-30T19:14:34.616Z,96935.61
2017-07-30T19:17:02.228Z,96914.45
2017-07-30T19:19:29.844Z,96896.02
2017-07-30T19:21:57.502Z,96883.05
2017-07-30T19:24:25.119Z,96869.50
2017-07-30T19:26:52.778Z,96870.39
2017-07-30T19:29:20.405Z,96872.90
2017-07-30T19:31:48.426Z,96880.36
2017-07-30T19:34:16.055Z,96881.15
2017-07-30T19:36:45.412Z,96884.59
2017-07-30T19:39:13.158Z,96909.36
2017-07-30T19:41:40.781Z,96921.59
2017-07-30T19:44:09.620Z,96938.28
2017-07-30T19:46:37.240Z,96949.94
2017-07-30T19:49:05.022Z,96959.16
2017-07-30T19:51:32.627Z,96942.25
2017-07-30T19:54:00.544Z,96936.18
2017-07-30T19:56:28.138Z,96945.15
2017-07-30T19:58:55.747Z,96948.10
2017-07-30T20:01:23.362Z,96947.36
2017-07-30T20:03:50.973Z,96939.07
2017-07-30T20:06:18.804Z,96950.02
2017-07-30T20:08:46.430Z,96954.66
2017-07-30T20:11:14.032Z,96959.70
2017-07-30T20:13:41.610Z,96958.81
2017-07-30T20:16:09.241Z,96963.27
2017-07-30T20:18:36.878Z,96965.59
2017-07-30T20:21:04.454Z,96973.73
2017-07-30T20:23:32.184Z,96965.13
2017-07-30T20:25:59.788Z,96972.85
2017-07-30T20:28:27.990Z,96963.52
2017-07-30T20:30:55.620Z,96964.84
2017-07-30T20:33:23.263Z,96970.33
2017-07-30T20:35:50.880Z,96962.05
2017-07-30T20:38:18.549Z,96961.63
2017-07-30T20:40:46.168Z,96947.38
2017-07-30T20:43:13.829Z,96933.59
2017-07-30T20:45:41.463Z,96932.69
2017-07-30T20:48:09.117Z,96938.66
2017-07-30T20:50:36.733Z,96926.60
2017-07-30T20:53:04.358Z,96936.92
2017-07-30T20:55:32.056Z,96944.62
2017-07-30T20:57:59.687Z,96938.28
2017-07-30T21:00:27.300Z,96944.36
2017-07-30T21:02:55.023Z,96947.05
2017-07-30T21:05:23.262Z,96947.11
2017-07-30T21:07:50.888Z,96949.73
2017-07-30T21:10:18.482Z,96953.19
2017-07-30T21:12:46.439Z,96956.69
2017-07-30T21:15:14.054Z,96939.59
2017-07-30T21:17:41.613Z,96926.27
2017-07-30T21:20:09.245Z,96924.66
2017-07-30T21:22:36.863Z,96922.15
2017-07-30T21:25:04.581Z,96933.42
2017-07-30T21:27:32.192Z,96940.31
2017-07-30T21:29:59.845Z,96942.91
2017-07-30T21:32:27.463Z,96966.55
2017-07-30T21:34:55.097Z,96987.20
2017-07-30T21:37:22.707Z,96991.23
2017-07-30T21:39:50.510Z,96988.43
2017-07-30T21:42:18.133Z,96988.00
2017-07-30T21:44:45.743Z,96999.99
2017-07-30T21:47:13.410Z,97018.95
2017-07-30T21:49:41.043Z,97037.44
2017-07-30T21:52:08.683Z,97035.38
2017-07-30T21:54:36.371Z,97044.52
2017-07-30T21:57:03.949Z,97054.60
2017-07-30T21:59:31.572Z,97064.20
2017-07-30T22:01:59.162Z,97075.86
2017-07-30T22:04:26.883Z,97075.38
2017-07-30T22:06:54.484Z,97069.66
2017-07-30T22:09:22.142Z,97055.73
2017-07-30T22:11:50.426Z,97045.38
2017-07-30T22:14:18.216Z,97056.45
2017-07-30T22:16:46.008Z,97063.70
2017-07-30T22:19:13.638Z,97071.44
2017-07-30T22:21:41.285Z,97064.55
2017-07-30T22:24:08.961Z,97064.66
2017-07-30T22:26:36.584Z,97056.50
2017-07-30T22:29:04.195Z,97045.33
2017-07-30T22:31:31.829Z,97036.25
2017-07-30T22:33:59.548Z,97030.17
2017-07-30T22:36:27.158Z,97021.58
2017-07-30T22:38:55.634Z,97014.60
2017-07-30T22:41:24.385Z,97004.33
2017-07-30T22:43:52.311Z,97002.12
2017-07-30T22:46:19.893Z,96993.53
2017-07-30T22:48:47.567Z,96984.50
2017-07-30T22:51:15.173Z,96973.82
2017-07-30T22:53:42.845Z,96957.22
2017-07-30T22:56:11.860Z,96932.90
2017-07-30T22:58:39.544Z,96912.59
2017-07-30T23:01:07.205Z,96892.25
2017-07-30T23:03:34.799Z,96876.23
2017-07-30T23:06:02.482Z,96894.77
2017-07-30T23:08:30.102Z,96908.52
2017-07-30T23:10:57.714Z,96937.67
2017-07-30T23:13:25.421Z,96952.69
2017-07-30T23:15:53.077Z,96951.40
2017-07-30T23:18:20.679Z,96951.40
2017-07-30T23:20:48.269Z,96959.15
2017-07-30T23:23:15.888Z,96956.23
2017-07-30T23:25:43.502Z,96979.87
2017-07-30T23:28:11.120Z,96983.72
2017-07-30T23:30:38.739Z,96991.02
2017-07-30T23:33:06.349Z,97003.58
2017-07-30T23:35:33.954Z,97015.98
2017-07-30T23:38:01.546Z,97019.43
2017-07-30T23:40:29.267Z,97027.20
2017-07-30T23:42:56.851Z,97034.55
2017-07-30T23:45:24.464Z,97047.38
2017-07-30T23:47:52.059Z,97060.17
2017-07-30T23:50:19.671Z,97066.61
2017-07-30T23:52:47.300Z,97094.06
2017-07-30T23:55:14.937Z,97149.99
2017-07-30T23:57:42.550Z,97227.56
